Fontana, Wisconsin
Current Conditions -  °F | °C
As of 8:55 PM on Monday 20 Oct 2014 (Local Time) from KBUU Reporting Station
Overcast Overcast  
Wind Chill: 50°   Ceiling: 5000
Heat Index: 50°   Visibility: 10mi
Dew Point: 40°   Wind: 6mph
Humidity: 69%   Direction: 340°NNW
Pressure: 30"   Gusts: NA
Location:  42.55°N, 88.57°W
Report Text: KBUU 210155Z AUTO 34005KT 10SM OVC050 10/05 A3000 RMK AO2 T01000045
Loading
Personal Weather Stations






























Interactive Weather Map
Tropical Storm Tracking
New forecast layout! Learn more

10-Day Weather Forecast

Advertisements
Track Severe Weather on mobile